Time;durP1;ratioP1;P1;durP2;ratioP2;P2;SDS_P1;SDS_P2;PMS_P1;PMS_P2;Temp;Humidity;BMP_temperature;BMP_pressure;BME280_temperature;BME280_humidity;BME280_pressure;Samples;Min_cycle;Max_cycle;Signal;HPM_P1;HPM_P2
2023/01/27 00:02:20;;;;;;;10.13;2.97;;;6.00;96.00;;;;;;5055230;28;20056;-79
2023/01/27 00:04:45;;;;;;;9.37;2.97;;;6.00;96.00;;;;;;5055150;28;20116;-80
2023/01/27 00:07:11;;;;;;;11.43;2.80;;;6.00;96.00;;;;;;5054981;28;20045;-79
2023/01/27 00:09:37;;;;;;;12.40;3.33;;;6.00;96.00;;;;;;5038623;28;20025;-78
2023/01/27 00:14:47;;;;;;;12.07;3.23;;;5.90;96.00;;;;;;5055273;28;20047;-80
2023/01/27 00:17:12;;;;;;;12.97;3.67;;;5.90;96.10;;;;;;5056343;28;20103;-80
2023/01/27 00:19:38;;;;;;;13.70;3.00;;;5.80;96.20;;;;;;5038304;28;20025;-80
2023/01/27 00:24:48;;;;;;;8.10;2.70;;;5.80;96.30;;;;;;5055987;28;20087;-79
2023/01/27 00:27:13;;;;;;;15.10;2.90;;;5.70;96.30;;;;;;5038186;28;20041;-79
2023/01/27 00:29:39;;;;;;;13.27;3.50;;;5.70;96.40;;;;;;5038241;28;20060;-79
2023/01/27 00:34:49;;;;;;;15.25;3.03;;;5.70;96.50;;;;;;5055752;28;20134;-80
2023/01/27 00:37:15;;;;;;;10.93;2.50;;;5.80;96.50;;;;;;5054671;28;20044;-79
2023/01/27 00:39:41;;;;;;;15.83;2.90;;;5.70;96.50;;;;;;5038030;28;20056;-80
2023/01/27 00:42:07;;;;;;;18.57;3.27;;;5.60;96.40;;;;;;5037735;28;20112;-79
2023/01/27 00:44:32;;;;;;;11.87;3.30;;;5.70;96.40;;;;;;5039389;28;20021;-79
2023/01/27 00:46:58;;;;;;;7.77;3.10;;;5.70;96.40;;;;;;5059694;28;20048;-79
2023/01/27 00:49:24;;;;;;;14.87;3.33;;;5.70;96.50;;;;;;5058442;28;20393;-79
2023/01/27 00:51:49;;;;;;;7.93;2.90;;;5.70;96.50;;;;;;5057161;28;20033;-79
2023/01/27 00:54:16;;;;;;;10.33;2.70;;;5.70;96.60;;;;;;5039858;28;20029;-79
2023/01/27 00:56:42;;;;;;;12.67;3.00;;;5.70;96.60;;;;;;5037516;28;20060;-79
2023/01/27 00:59:07;;;;;;;14.57;3.53;;;5.80;96.70;;;;;;5054236;28;20424;-78
2023/01/27 01:01:33;;;;;;;14.53;3.20;;;5.70;96.80;;;;;;5053831;28;20033;-79
2023/01/27 01:03:59;;;;;;;14.03;3.33;;;5.70;96.80;;;;;;5037266;28;20540;-79
2023/01/27 01:06:26;;;;;;;12.77;2.77;;;5.70;96.80;;;;;;5053681;28;20041;-79
2023/01/27 01:08:52;;;;;;;11.43;3.37;;;5.70;96.90;;;;;;5055272;28;20060;-80
2023/01/27 01:11:19;;;;;;;9.67;2.90;;;5.70;96.80;;;;;;5053909;28;20033;-79
2023/01/27 01:13:46;;;;;;;9.83;3.13;;;5.70;96.80;;;;;;5054917;28;20091;-79
2023/01/27 01:16:14;;;;;;;14.80;3.10;;;5.70;96.90;;;;;;5055285;28;20118;-79
2023/01/27 01:18:41;;;;;;;9.77;3.03;;;5.70;96.90;;;;;;5054974;28;20090;-79
2023/01/27 01:21:07;;;;;;;15.90;4.93;;;5.60;96.90;;;;;;5053609;28;20033;-79
2023/01/27 01:23:36;;;;;;;18.77;3.17;;;5.70;96.90;;;;;;5053754;28;20025;-79
2023/01/27 01:26:02;;;;;;;10.83;3.27;;;5.60;96.90;;;;;;5053585;28;20037;-79
2023/01/27 01:28:28;;;;;;;12.00;3.97;;;5.60;96.90;;;;;;5036864;28;20036;-79
2023/01/27 01:30:54;;;;;;;16.97;5.33;;;5.60;96.90;;;;;;5053481;28;20093;-79
2023/01/27 01:33:19;;;;;;;14.47;4.50;;;5.70;96.90;;;;;;5053866;28;20110;-78
2023/01/27 01:35:45;;;;;;;21.10;5.47;;;5.60;96.90;;;;;;5054389;28;20393;-79
2023/01/27 01:38:11;;;;;;;16.87;5.83;;;5.60;96.90;;;;;;5037439;28;20040;-79
2023/01/27 01:40:42;;;;;;;10.83;5.00;;;5.50;96.90;;;;;;5054269;28;20021;-80
2023/01/27 01:43:16;;;;;;;11.73;4.83;;;5.50;97.00;;;;;;5053973;28;20021;-79
2023/01/27 01:45:46;;;;;;;15.83;4.60;;;5.50;97.10;;;;;;5053629;28;20040;-79
2023/01/27 01:48:36;;;;;;;15.00;5.17;;;5.50;97.00;;;;;;5054797;28;20017;-79
2023/01/27 01:51:07;;;;;;;13.03;5.17;;;5.50;97.10;;;;;;5049490;28;20440;-79
2023/01/27 01:53:42;;;;;;;10.10;4.97;;;5.50;97.10;;;;;;5054687;28;20028;-80
2023/01/27 01:56:22;;;;;;;16.50;4.97;;;5.50;97.10;;;;;;5052817;28;20052;-79
2023/01/27 01:58:49;;;;;;;12.50;5.13;;;5.50;97.10;;;;;;5053064;28;20507;-79
2023/01/27 02:01:16;;;;;;;17.17;5.60;;;5.50;97.20;;;;;;5053390;28;20556;-80
2023/01/27 02:03:46;;;;;;;15.40;5.03;;;5.50;97.20;;;;;;5053267;28;20021;-80
2023/01/27 02:06:12;;;;;;;14.77;5.60;;;5.40;97.20;;;;;;5052302;28;20511;-79
2023/01/27 02:08:41;;;;;;;15.80;5.83;;;5.40;97.60;;;;;;5052686;28;20029;-79
2023/01/27 02:11:08;;;;;;;21.27;7.20;;;5.40;97.40;;;;;;5052594;28;20112;-79
2023/01/27 02:13:34;;;;;;;16.93;5.90;;;5.40;97.40;;;;;;5052945;28;20423;-79
2023/01/27 02:16:01;;;;;;;13.37;5.40;;;5.50;97.60;;;;;;5052692;28;20029;-78
2023/01/27 02:18:27;;;;;;;18.87;6.47;;;5.40;97.60;;;;;;5036430;28;20381;-78
2023/01/27 02:20:54;;;;;;;14.37;6.53;;;5.40;97.70;;;;;;5052280;28;20485;-78
2023/01/27 02:23:27;;;;;;;17.67;5.50;;;5.40;97.70;;;;;;5053685;28;20029;-78
2023/01/27 02:26:19;;;;;;;15.83;7.03;;;5.40;97.80;;;;;;5052457;28;20064;-78
2023/01/27 02:28:51;;;;;;;17.80;6.80;;;5.30;97.80;;;;;;5052957;28;20041;-78
2023/01/27 02:31:16;;;;;;;13.47;6.10;;;5.40;98.00;;;;;;5052336;28;20032;-78
2023/01/27 02:33:42;;;;;;;17.17;7.47;;;5.40;98.00;;;;;;5052214;28;20025;-79
2023/01/27 02:36:16;;;;;;;15.13;6.93;;;5.40;98.10;;;;;;5035012;28;20025;-78
2023/01/27 02:38:51;;;;;;;18.20;7.23;;;5.40;98.10;;;;;;5052258;28;20017;-78
2023/01/27 02:41:17;;;;;;;16.13;6.70;;;5.40;98.10;;;;;;5052079;28;20078;-78
2023/01/27 02:43:42;;;;;;;23.27;7.53;;;5.30;98.10;;;;;;5052129;28;20490;-78
2023/01/27 02:46:08;;;;;;;17.90;7.90;;;5.40;98.20;;;;;;5035185;28;20059;-78
2023/01/27 02:48:33;;;;;;;20.77;8.47;;;5.40;98.30;;;;;;5051908;28;20044;-78
2023/01/27 02:50:59;;;;;;;20.00;8.67;;;5.50;98.50;;;;;;5054191;28;20207;-78
2023/01/27 02:53:25;;;;;;;22.67;9.77;;;5.50;98.70;;;;;;5045517;28;20025;-79
2023/01/27 02:55:50;;;;;;;24.03;9.40;;;5.40;98.60;;;;;;5046057;28;20053;-80
2023/01/27 02:58:16;;;;;;;18.70;9.80;;;5.40;98.80;;;;;;5054935;28;20029;-79
2023/01/27 03:00:42;;;;;;;18.03;9.93;;;5.40;98.90;;;;;;5052580;28;20072;-79
2023/01/27 03:03:08;;;;;;;21.87;10.03;;;5.40;99.20;;;;;;5035324;28;20032;-79
2023/01/27 03:05:34;;;;;;;25.70;10.37;;;5.40;99.00;;;;;;5051791;28;20037;-79
2023/01/27 03:08:00;;;;;;;28.07;11.43;;;5.40;99.10;;;;;;5034751;28;20104;-79
2023/01/27 03:10:25;;;;;;;21.13;11.13;;;5.40;99.20;;;;;;5035238;28;20077;-79
2023/01/27 03:12:51;;;;;;;28.93;12.23;;;5.40;99.30;;;;;;5052059;28;20476;-81
2023/01/27 03:18:15;;;;;;;27.77;12.32;;;5.40;99.60;;;;;;5052229;28;20048;-79
2023/01/27 03:20:43;;;;;;;30.27;12.87;;;5.30;99.70;;;;;;5051488;28;20025;-80
2023/01/27 03:23:10;;;;;;;26.97;11.97;;;5.30;99.80;;;;;;5051532;28;20066;-80
2023/01/27 03:25:39;;;;;;;28.67;13.03;;;5.30;99.80;;;;;;5035071;28;20052;-80
2023/01/27 03:28:04;;;;;;;28.23;13.43;;;5.30;99.70;;;;;;5052728;28;20128;-80
2023/01/27 03:30:30;;;;;;;32.20;12.57;;;5.30;99.70;;;;;;5018866;28;20112;-80
2023/01/27 03:32:55;;;;;;;23.30;12.73;;;5.20;99.60;;;;;;5053223;28;20467;-82
2023/01/27 03:35:22;;;;;;;22.40;12.90;;;5.20;99.60;;;;;;5051218;28;20464;-80
2023/01/27 03:46:19;;;;;;;23.95;12.38;;;5.30;99.40;;;;;;5051714;28;20409;-80
2023/01/27 03:48:54;;;;;;;19.90;10.95;;;5.30;99.30;;;;;;5037184;28;20456;-80
2023/01/27 03:51:22;;;;;;;23.63;11.63;;;5.30;99.20;;;;;;5051461;28;20041;-80
2023/01/27 03:53:48;;;;;;;23.80;11.90;;;5.30;99.20;;;;;;5052544;28;20025;-80
2023/01/27 03:56:15;;;;;;;21.83;11.93;;;5.30;99.30;;;;;;5052566;28;20037;-79
2023/01/27 03:58:41;;;;;;;23.60;11.50;;;5.30;99.30;;;;;;5034802;28;20032;-80
2023/01/27 04:01:19;;;;;;;19.63;10.90;;;5.30;99.20;;;;;;5051596;28;20053;-79
2023/01/27 04:06:51;;;;;;;19.20;10.63;;;5.40;99.20;;;;;;5052118;28;20471;-78
2023/01/27 04:09:22;;;;;;;18.17;10.27;;;5.30;99.10;;;;;;5052415;28;20059;-79
2023/01/27 04:11:54;;;;;;;15.23;8.77;;;5.30;99.10;;;;;;5052760;28;20021;-79
2023/01/27 04:14:29;;;;;;;15.93;8.67;;;5.40;99.10;;;;;;5036096;28;20378;-79
2023/01/27 04:17:03;;;;;;;16.13;7.80;;;5.40;99.00;;;;;;5053246;28;20061;-78
2023/01/27 04:19:29;;;;;;;17.70;10.05;;;5.40;98.80;;;;;;5054740;28;20082;-79
2023/01/27 04:21:56;;;;;;;14.17;7.77;;;5.40;98.60;;;;;;5054560;28;20469;-79
2023/01/27 04:24:22;;;;;;;14.10;8.13;;;5.40;98.70;;;;;;5054587;28;20385;-78
2023/01/27 04:26:59;;;;;;;14.97;8.10;;;5.50;98.60;;;;;;5037891;28;20037;-79
2023/01/27 04:29:31;;;;;;;16.33;7.70;;;5.40;98.60;;;;;;5054693;28;20047;-79
2023/01/27 04:31:57;;;;;;;14.13;8.50;;;5.50;98.50;;;;;;5054850;28;20021;-78
2023/01/27 04:34:24;;;;;;;13.77;7.30;;;5.40;98.50;;;;;;5037755;28;20025;-78
2023/01/27 04:36:50;;;;;;;11.37;6.33;;;5.50;98.50;;;;;;5054595;28;20159;-79
2023/01/27 04:39:16;;;;;;;12.73;7.40;;;5.40;98.40;;;;;;5037824;28;20501;-79
2023/01/27 04:41:42;;;;;;;13.73;7.13;;;5.50;98.30;;;;;;5037999;28;20044;-79
2023/01/27 04:44:09;;;;;;;12.83;7.00;;;5.60;98.30;;;;;;5037723;28;20029;-79
2023/01/27 04:46:35;;;;;;;14.00;6.77;;;5.50;98.20;;;;;;5037897;28;20033;-79
2023/01/27 04:49:01;;;;;;;11.83;6.90;;;5.50;98.20;;;;;;5054499;28;20031;-79
2023/01/27 04:51:27;;;;;;;10.87;6.50;;;5.60;98.10;;;;;;5054421;28;20059;-79
2023/01/27 04:53:53;;;;;;;11.97;6.80;;;5.60;98.10;;;;;;5035865;28;20054;-79
2023/01/27 04:56:24;;;;;;;10.23;5.87;;;5.50;98.00;;;;;;5036248;28;20452;-79
2023/01/27 04:58:51;;;;;;;9.47;5.30;;;5.60;98.10;;;;;;5054147;28;20028;-79
2023/01/27 05:01:17;;;;;;;11.67;5.73;;;5.60;98.10;;;;;;5054496;28;20465;-79
2023/01/27 05:03:42;;;;;;;9.97;5.90;;;5.60;98.10;;;;;;5037136;28;20031;-79
2023/01/27 05:06:10;;;;;;;11.30;5.10;;;5.60;98.10;;;;;;5053513;28;20559;-79
2023/01/27 05:08:36;;;;;;;10.07;5.23;;;5.60;98.10;;;;;;5053907;28;20047;-79
2023/01/27 05:11:01;;;;;;;11.50;5.87;;;5.60;97.90;;;;;;5055347;28;20029;-79
2023/01/27 05:13:27;;;;;;;10.83;6.07;;;5.60;97.70;;;;;;5037748;28;20060;-79
2023/01/27 05:16:07;;;;;;;11.03;5.27;;;5.70;97.60;;;;;;5037063;28;20663;-78
2023/01/27 05:18:33;;;;;;;11.10;5.70;;;5.60;97.60;;;;;;5053610;28;20220;-78
2023/01/27 05:21:00;;;;;;;9.57;5.23;;;5.70;97.70;;;;;;5037079;28;20029;-78
2023/01/27 05:23:35;;;;;;;9.60;5.03;;;5.60;97.70;;;;;;5053532;28;20065;-79
2023/01/27 05:26:07;;;;;;;10.37;4.97;;;5.60;97.60;;;;;;5053381;28;20044;-79
2023/01/27 05:28:34;;;;;;;11.03;5.63;;;5.70;97.40;;;;;;5053440;28;20025;-80
2023/01/27 05:31:17;;;;;;;9.83;4.90;;;5.70;97.40;;;;;;5035947;28;20124;-79
2023/01/27 05:33:43;;;;;;;8.23;4.87;;;5.70;97.40;;;;;;5054935;28;20227;-79
2023/01/27 05:36:11;;;;;;;9.23;4.97;;;5.70;97.20;;;;;;5052872;28;20032;-79
2023/01/27 05:38:38;;;;;;;8.13;4.30;;;5.80;97.20;;;;;;5052977;28;20044;-79
2023/01/27 05:41:06;;;;;;;8.47;4.43;;;5.70;97.00;;;;;;5053145;28;20021;-79
2023/01/27 05:43:33;;;;;;;9.47;4.70;;;5.70;96.90;;;;;;5053050;28;20087;-78
2023/01/27 05:46:07;;;;;;;15.47;5.10;;;5.70;96.80;;;;;;5053162;28;20053;-79
2023/01/27 05:48:38;;;;;;;7.07;4.00;;;5.70;96.60;;;;;;5053230;28;20102;-79
2023/01/27 05:51:04;;;;;;;7.43;3.90;;;5.70;96.60;;;;;;5052933;28;20476;-79
2023/01/27 05:53:30;;;;;;;6.50;3.87;;;5.70;96.60;;;;;;5036358;28;20029;-79
2023/01/27 05:55:56;;;;;;;7.53;4.40;;;5.70;96.60;;;;;;5052826;28;20063;-79
2023/01/27 05:58:22;;;;;;;9.93;4.60;;;5.70;96.60;;;;;;5052574;28;20049;-79
2023/01/27 06:00:48;;;;;;;9.53;4.73;;;5.70;96.50;;;;;;5052631;28;20017;-79
2023/01/27 06:03:13;;;;;;;8.83;4.40;;;5.70;96.50;;;;;;5053298;28;20043;-79
2023/01/27 06:05:50;;;;;;;7.00;4.17;;;5.70;96.40;;;;;;5052169;28;20298;-80
2023/01/27 06:08:16;;;;;;;9.57;4.57;;;5.70;96.40;;;;;;5052524;28;20028;-79
2023/01/27 06:10:41;;;;;;;8.10;4.50;;;5.70;96.40;;;;;;5035567;28;20119;-79
2023/01/27 06:13:07;;;;;;;9.87;4.33;;;5.80;96.40;;;;;;5035881;28;20040;-79
2023/01/27 06:15:33;;;;;;;7.17;4.33;;;5.70;96.30;;;;;;5052579;28;20056;-78
2023/01/27 06:17:58;;;;;;;8.00;4.47;;;5.60;96.30;;;;;;5053808;28;20025;-77
2023/01/27 06:20:24;;;;;;;7.87;4.13;;;5.60;96.30;;;;;;5052408;28;20029;-78
2023/01/27 06:22:50;;;;;;;7.80;4.07;;;5.60;96.30;;;;;;5052582;28;20058;-79
2023/01/27 06:25:15;;;;;;;9.05;4.55;;;5.60;96.40;;;;;;5053759;28;20033;-78
2023/01/27 06:27:41;;;;;;;8.77;4.47;;;5.60;96.40;;;;;;5053574;28;20067;-79
2023/01/27 06:30:07;;;;;;;10.33;4.73;;;5.70;96.40;;;;;;5053581;28;20104;-79
2023/01/27 06:32:35;;;;;;;8.87;4.30;;;5.60;96.60;;;;;;5052423;28;20033;-80
2023/01/27 06:35:01;;;;;;;8.50;4.60;;;5.60;96.60;;;;;;5051529;28;20032;-80
2023/01/27 06:37:29;;;;;;;7.77;4.23;;;5.60;96.40;;;;;;5052104;28;20036;-78
2023/01/27 06:39:55;;;;;;;7.90;4.20;;;5.60;96.40;;;;;;5051927;28;20380;-78
2023/01/27 06:42:21;;;;;;;7.87;4.43;;;5.50;96.40;;;;;;5051599;28;20117;-78
2023/01/27 06:44:46;;;;;;;9.50;4.37;;;5.50;96.40;;;;;;5049228;28;20014;-79
2023/01/27 06:47:12;;;;;;;7.00;3.80;;;5.60;96.40;;;;;;5020317;28;20414;-79
2023/01/27 06:49:37;;;;;;;8.00;4.07;;;5.50;96.40;;;;;;5025091;28;20025;-80
2023/01/27 06:52:03;;;;;;;7.03;4.03;;;5.60;96.40;;;;;;5047141;28;20036;-79
2023/01/27 06:54:28;;;;;;;6.33;3.77;;;5.50;96.40;;;;;;5036653;28;20435;-79
2023/01/27 06:56:54;;;;;;;7.27;4.23;;;5.40;96.40;;;;;;5014325;28;20049;-79
2023/01/27 06:59:20;;;;;;;6.93;3.27;;;5.40;96.50;;;;;;5037103;28;20370;-79
2023/01/27 07:01:45;;;;;;;6.97;3.57;;;5.40;96.50;;;;;;5031805;28;20428;-79
2023/01/27 07:04:11;;;;;;;7.83;3.03;;;5.40;96.50;;;;;;5036988;28;20067;-79
2023/01/27 07:06:37;;;;;;;6.47;3.63;;;5.40;96.60;;;;;;5031177;28;20037;-79
2023/01/27 07:09:02;;;;;;;7.53;3.37;;;5.40;96.60;;;;;;5037473;28;20619;-79
2023/01/27 07:11:28;;;;;;;6.13;3.17;;;5.40;96.50;;;;;;5042741;28;20044;-79
2023/01/27 07:13:54;;;;;;;7.03;3.57;;;5.30;96.60;;;;;;5023897;28;20057;-79
2023/01/27 07:16:20;;;;;;;8.30;4.40;;;5.30;96.30;;;;;;5040958;28;20029;-79
2023/01/27 07:18:45;;;;;;;7.57;3.80;;;5.20;96.30;;;;;;5039058;28;20144;-79
2023/01/27 07:21:11;;;;;;;9.17;4.10;;;5.20;96.20;;;;;;5031907;28;20029;-78
2023/01/27 07:23:37;;;;;;;6.80;3.20;;;5.10;96.30;;;;;;5031704;28;20116;-79
2023/01/27 07:26:02;;;;;;;8.63;3.77;;;5.00;96.20;;;;;;5031671;28;20045;-79
2023/01/27 07:28:28;;;;;;;7.13;4.20;;;4.90;96.30;;;;;;5032459;28;20068;-79
2023/01/27 07:30:54;;;;;;;6.63;3.23;;;5.00;96.40;;;;;;5015431;28;20367;-79
2023/01/27 07:33:19;;;;;;;7.33;3.77;;;4.90;96.40;;;;;;5031663;28;20037;-79
2023/01/27 07:35:48;;;;;;;7.60;3.67;;;4.80;96.50;;;;;;5014738;28;20424;-79
2023/01/27 07:38:14;;;;;;;7.00;3.80;;;4.80;96.60;;;;;;5032472;28;20083;-79
2023/01/27 07:40:40;;;;;;;9.87;3.80;;;4.80;96.60;;;;;;5033565;28;20120;-79
2023/01/27 07:43:06;;;;;;;6.00;3.40;;;4.80;96.60;;;;;;5025817;28;20121;-79
2023/01/27 07:45:31;;;;;;;5.13;3.23;;;4.70;96.60;;;;;;5025290;28;20079;-79
2023/01/27 07:48:06;;;;;;;7.00;3.43;;;4.70;96.70;;;;;;5040489;28;20500;-79
2023/01/27 07:50:32;;;;;;;5.57;2.97;;;4.70;96.70;;;;;;5034733;28;20030;-79
2023/01/27 07:53:00;;;;;;;7.23;3.13;;;4.80;96.90;;;;;;5039625;28;20037;-78
2023/01/27 07:55:25;;;;;;;6.43;3.27;;;4.70;96.90;;;;;;5019084;28;20057;-79
2023/01/27 07:57:55;;;;;;;5.60;3.00;;;4.80;97.00;;;;;;5023694;28;20489;-79
2023/01/27 08:00:21;;;;;;;7.20;2.83;;;4.80;97.00;;;;;;5048471;28;20034;-77
2023/01/27 08:02:51;;;;;;;6.40;3.37;;;4.80;97.00;;;;;;5043293;28;20033;-79
2023/01/27 08:05:17;;;;;;;6.33;3.37;;;4.90;97.10;;;;;;5044091;28;20112;-78
2023/01/27 08:07:42;;;;;;;4.40;3.07;;;4.90;97.00;;;;;;5044092;28;20156;-78
2023/01/27 08:10:09;;;;;;;6.07;3.00;;;5.00;96.80;;;;;;5028157;28;20048;-79
2023/01/27 08:12:35;;;;;;;7.73;3.30;;;5.00;96.80;;;;;;5025507;28;20021;-78
2023/01/27 08:15:00;;;;;;;5.10;2.90;;;5.00;96.70;;;;;;5045077;28;20025;-78
2023/01/27 08:17:26;;;;;;;9.43;3.23;;;5.00;96.70;;;;;;5044307;28;20104;-79
2023/01/27 08:19:51;;;;;;;5.03;3.20;;;5.00;96.60;;;;;;5024621;28;20033;-78
2023/01/27 08:22:20;;;;;;;7.00;3.00;;;5.00;96.70;;;;;;5034712;28;20461;-78
2023/01/27 08:24:47;;;;;;;6.73;3.13;;;5.10;96.70;;;;;;5018877;28;20026;-78
2023/01/27 08:27:12;;;;;;;8.40;2.83;;;5.00;96.60;;;;;;5036322;28;20497;-78
2023/01/27 08:29:38;;;;;;;5.93;2.63;;;5.10;96.50;;;;;;5034515;28;20026;-78
2023/01/27 08:32:04;;;;;;;5.67;2.57;;;5.20;96.50;;;;;;5018122;28;20117;-78
2023/01/27 08:34:30;;;;;;;4.97;2.67;;;5.20;96.40;;;;;;5017507;28;20031;-78
2023/01/27 08:36:56;;;;;;;5.10;2.47;;;5.20;96.40;;;;;;5034195;28;20028;-79
2023/01/27 08:39:21;;;;;;;4.03;2.17;;;5.20;96.40;;;;;;5018034;28;20026;-78
2023/01/27 08:41:47;;;;;;;5.83;2.40;;;5.30;96.50;;;;;;5034371;28;20029;-78
2023/01/27 08:44:12;;;;;;;4.93;2.70;;;5.20;96.50;;;;;;5034565;28;20047;-79
2023/01/27 08:46:38;;;;;;;6.53;3.00;;;5.30;96.50;;;;;;5017795;28;20042;-79
2023/01/27 08:49:04;;;;;;;3.83;2.20;;;5.20;96.40;;;;;;5017642;28;20102;-79
2023/01/27 08:51:29;;;;;;;7.13;2.40;;;5.40;96.40;;;;;;5034260;28;20551;-79
2023/01/27 08:53:55;;;;;;;6.33;2.63;;;5.30;96.30;;;;;;5018075;28;20600;-79
2023/01/27 08:56:21;;;;;;;5.23;2.27;;;5.30;96.20;;;;;;5017472;28;20030;-79
2023/01/27 08:58:47;;;;;;;11.27;2.80;;;5.30;96.10;;;;;;5017322;28;20053;-78
2023/01/27 09:01:14;;;;;;;5.10;2.50;;;5.30;95.90;;;;;;5029445;28;20029;-78
2023/01/27 09:03:40;;;;;;;5.80;2.10;;;5.30;96.00;;;;;;5054392;28;20052;-79
2023/01/27 09:06:08;;;;;;;6.07;2.80;;;5.40;96.40;;;;;;5036481;28;20485;-78
2023/01/27 09:08:33;;;;;;;6.33;2.13;;;5.40;96.00;;;;;;5037337;28;20365;-78
2023/01/27 09:10:59;;;;;;;6.53;2.43;;;5.40;96.00;;;;;;5053805;28;20080;-78
2023/01/27 09:13:24;;;;;;;7.00;2.07;;;5.40;96.00;;;;;;5054879;28;20045;-77
2023/01/27 09:15:51;;;;;;;5.13;2.40;;;5.30;96.00;;;;;;5037586;28;20021;-78
2023/01/27 09:18:17;;;;;;;4.20;2.33;;;5.40;96.00;;;;;;5053594;28;20035;-78
2023/01/27 09:20:43;;;;;;;6.73;2.50;;;5.40;96.00;;;;;;5054942;28;20029;-78
2023/01/27 09:23:08;;;;;;;4.30;2.17;;;5.40;96.00;;;;;;5053826;28;20060;-78
2023/01/27 09:25:34;;;;;;;4.60;2.43;;;5.40;96.00;;;;;;5036573;28;20032;-78
2023/01/27 09:28:00;;;;;;;6.43;3.20;;;5.50;95.90;;;;;;5027938;28;20029;-78
2023/01/27 09:30:28;;;;;;;5.17;2.80;;;5.40;95.80;;;;;;5046523;28;20021;-78
2023/01/27 09:32:58;;;;;;;5.63;2.80;;;5.40;95.90;;;;;;5067890;28;20470;-78
2023/01/27 09:35:26;;;;;;;6.07;3.00;;;5.40;95.90;;;;;;5042056;28;20022;-79
2023/01/27 09:37:57;;;;;;;7.47;2.97;;;5.40;96.00;;;;;;5019407;28;20034;-78
2023/01/27 09:40:30;;;;;;;4.97;2.30;;;5.40;96.00;;;;;;5047244;28;20159;-79
2023/01/27 09:43:28;;;;;;;4.77;2.00;;;5.40;96.10;;;;;;5053965;28;20044;-79
2023/01/27 09:46:26;;;;;;;4.40;2.30;;;5.50;96.10;;;;;;5054220;28;20546;-78
2023/01/27 09:48:58;;;;;;;6.23;2.83;;;5.50;96.00;;;;;;5053946;28;20385;-77
2023/01/27 09:51:54;;;;;;;8.27;3.43;;;5.50;96.00;;;;;;5051798;28;20029;-81
2023/01/27 09:54:52;;;;;;;4.90;2.37;;;5.50;96.00;;;;;;5048996;28;20029;-79
2023/01/27 09:57:27;;;;;;;4.97;2.43;;;5.50;96.00;;;;;;5025525;28;20060;-79
2023/01/27 10:00:12;;;;;;;6.23;2.50;;;5.50;96.10;;;;;;5052689;28;20067;-80
2023/01/27 10:03:16;;;;;;;6.78;2.78;;;5.50;96.10;;;;;;5052663;28;20152;-78
2023/01/27 10:06:09;;;;;;;5.53;2.63;;;5.50;96.10;;;;;;5052200;28;20045;-79
2023/01/27 10:09:13;;;;;;;6.63;2.70;;;5.60;96.10;;;;;;5052761;28;20053;-79
2023/01/27 10:11:47;;;;;;;9.57;3.27;;;5.60;96.00;;;;;;5051175;28;20048;-78
2023/01/27 10:14:22;;;;;;;5.37;2.90;;;5.60;95.90;;;;;;5052879;28;20114;-79
2023/01/27 10:17:10;;;;;;;7.27;3.23;;;5.60;95.90;;;;;;5034058;28;20112;-79
2023/01/27 10:19:44;;;;;;;7.60;2.70;;;5.60;95.80;;;;;;5033379;28;20030;-80
2023/01/27 10:22:27;;;;;;;6.63;3.22;;;5.60;95.80;;;;;;5032421;28;20477;-81
2023/01/27 10:25:19;;;;;;;5.07;2.43;;;5.60;95.80;;;;;;5032287;28;20041;-78
2023/01/27 10:27:49;;;;;;;5.40;3.03;;;5.60;95.90;;;;;;5033403;28;20045;-79
2023/01/27 10:30:26;;;;;;;6.00;2.57;;;5.70;95.90;;;;;;5034592;28;20374;-80
2023/01/27 10:33:17;;;;;;;4.80;3.03;;;5.70;95.80;;;;;;5031468;28;20473;-81
2023/01/27 10:35:52;;;;;;;6.53;3.33;;;5.70;95.80;;;;;;5051647;28;20112;-83
2023/01/27 10:38:40;;;;;;;7.83;3.23;;;5.80;95.90;;;;;;5052584;28;20029;-83
2023/01/27 10:41:49;;;;;;;5.33;2.77;;;5.80;95.90;;;;;;5052321;28;20025;-83
2023/01/27 10:44:39;;;;;;;6.07;2.87;;;5.80;95.70;;;;;;5043492;28;20179;-81
2023/01/27 10:47:32;;;;;;;5.70;2.93;;;5.80;95.70;;;;;;5053194;28;20116;-83
2023/01/27 10:50:14;;;;;;;7.70;3.13;;;5.90;95.60;;;;;;5051923;28;20114;-82
2023/01/27 10:53:07;;;;;;;6.57;3.73;;;5.90;95.50;;;;;;5041171;28;20049;-84
2023/01/27 10:55:43;;;;;;;11.07;3.90;;;5.90;95.40;;;;;;5043512;28;20022;-82
2023/01/27 10:58:19;;;;;;;7.97;4.37;;;5.90;95.30;;;;;;5041917;28;20048;-83
2023/01/27 11:00:50;;;;;;;5.80;3.50;;;5.90;95.10;;;;;;5041362;28;20041;-82
2023/01/27 11:03:33;;;;;;;6.53;3.40;;;5.90;95.10;;;;;;5042250;28;20021;-84
2023/01/27 11:06:32;;;;;;;8.88;3.75;;;5.90;95.10;;;;;;5049376;28;20037;-85
2023/01/27 11:09:06;;;;;;;5.63;3.13;;;5.90;95.00;;;;;;5049385;28;20131;-86
2023/01/27 11:11:46;;;;;;;5.77;2.87;;;5.90;94.90;;;;;;5050696;28;20112;-80
2023/01/27 11:14:23;;;;;;;5.87;3.33;;;5.90;94.90;;;;;;5026362;28;20045;-80
2023/01/27 11:16:52;;;;;;;7.37;2.87;;;5.90;94.90;;;;;;5039878;28;20075;-81
2023/01/27 11:19:32;;;;;;;4.73;2.47;;;5.90;94.80;;;;;;5031959;28;20382;-81
2023/01/27 11:22:01;;;;;;;6.83;3.17;;;6.00;94.70;;;;;;5038999;28;20052;-81
2023/01/27 11:24:33;;;;;;;5.60;2.90;;;6.10;94.70;;;;;;5038480;28;20112;-81
2023/01/27 11:27:29;;;;;;;5.50;2.97;;;6.00;94.70;;;;;;5043005;28;20039;-81
2023/01/27 11:30:06;;;;;;;7.53;3.43;;;6.20;94.70;;;;;;5036855;28;20033;-80
2023/01/27 11:32:50;;;;;;;5.53;3.07;;;6.20;94.70;;;;;;5035792;28;20028;-80
2023/01/27 11:35:15;;;;;;;6.35;3.30;;;6.30;94.60;;;;;;5035216;28;20423;-81
2023/01/27 11:37:46;;;;;;;5.40;3.20;;;6.40;94.40;;;;;;5018217;28;20025;-80
2023/01/27 11:40:32;;;;;;;5.17;3.03;;;6.50;94.40;;;;;;5035217;28;20031;-81
2023/01/27 11:42:58;;;;;;;7.23;3.23;;;6.40;94.20;;;;;;5035326;28;20121;-81
2023/01/27 11:45:26;;;;;;;8.23;3.23;;;6.40;94.20;;;;;;5019605;28;20026;-81
2023/01/27 11:47:58;;;;;;;4.93;2.93;;;6.50;94.20;;;;;;5037371;28;20477;-81
2023/01/27 11:50:30;;;;;;;5.97;2.87;;;6.50;93.90;;;;;;5044055;28;20021;-81
2023/01/27 11:53:18;;;;;;;5.03;2.70;;;6.50;93.90;;;;;;5047861;28;20120;-81
2023/01/27 11:55:51;;;;;;;4.63;2.60;;;6.50;93.60;;;;;;5043091;28;20025;-81
2023/01/27 11:58:23;;;;;;;5.10;2.72;;;6.60;93.60;;;;;;5035054;28;20120;-80
2023/01/27 12:00:56;;;;;;;5.07;2.83;;;6.60;93.40;;;;;;5035500;28;20025;-81
2023/01/27 12:03:39;;;;;;;4.97;2.50;;;6.60;93.10;;;;;;5036392;28;20428;-81
2023/01/27 12:06:14;;;;;;;4.88;2.13;;;6.60;93.00;;;;;;5040460;28;20519;-81
2023/01/27 12:08:45;;;;;;;4.70;2.37;;;6.60;92.70;;;;;;5054808;28;20051;-81
2023/01/27 12:11:21;;;;;;;4.73;2.20;;;6.70;92.80;;;;;;5055229;28;20522;-81
2023/01/27 12:14:05;;;;;;;6.90;2.67;;;6.80;92.70;;;;;;5054162;28;20029;-81
2023/01/27 12:16:46;;;;;;;5.57;2.70;;;6.90;92.50;;;;;;5056015;28;20424;-81
2023/01/27 12:19:31;;;;;;;4.27;2.47;;;6.80;92.40;;;;;;5054572;28;20408;-81
2023/01/27 12:22:01;;;;;;;3.93;2.23;;;6.80;92.40;;;;;;5055651;28;20544;-81
2023/01/27 12:24:28;;;;;;;6.33;2.87;;;6.90;92.40;;;;;;5055948;28;20017;-81
2023/01/27 12:26:55;;;;;;;5.07;2.23;;;6.90;92.30;;;;;;5054586;28;20037;-81
2023/01/27 12:29:37;;;;;;;3.10;1.63;;;6.90;92.70;;;;;;5054546;28;20029;-81
2023/01/27 12:32:10;;;;;;;4.73;2.80;;;6.90;92.20;;;;;;5042105;28;20025;-81
2023/01/27 12:34:36;;;;;;;4.63;2.70;;;6.90;92.10;;;;;;5043865;28;20103;-81
2023/01/27 12:37:06;;;;;;;3.97;2.10;;;7.00;92.20;;;;;;5043066;28;20477;-82
2023/01/27 12:39:45;;;;;;;4.73;2.43;;;7.00;92.10;;;;;;5051981;28;20095;-81
2023/01/27 12:42:40;;;;;;;5.07;3.30;;;7.10;92.00;;;;;;5056428;28;20025;-81
2023/01/27 12:45:28;;;;;;;4.87;2.40;;;7.10;92.10;;;;;;5054149;28;20036;-81
2023/01/27 12:48:03;;;;;;;4.47;2.53;;;7.20;92.30;;;;;;5052894;28;20029;-81
2023/01/27 12:50:33;;;;;;;6.17;3.27;;;7.30;91.80;;;;;;5053603;28;20497;-80
2023/01/27 12:53:04;;;;;;;3.63;2.40;;;7.30;91.50;;;;;;5037012;28;20029;-80
2023/01/27 12:55:33;;;;;;;4.00;2.50;;;7.30;91.30;;;;;;5053165;28;20044;-81
2023/01/27 12:57:59;;;;;;;4.80;2.53;;;7.30;91.40;;;;;;5052653;28;20025;-79
2023/01/27 13:00:25;;;;;;;4.13;2.37;;;7.20;91.20;;;;;;5044804;28;20041;-83
2023/01/27 13:02:56;;;;;;;5.43;2.70;;;7.30;91.00;;;;;;5041234;28;20370;-85
2023/01/27 13:05:21;;;;;;;5.20;2.60;;;7.30;90.90;;;;;;5034701;28;20105;-85
2023/01/27 13:07:52;;;;;;;6.47;3.23;;;7.20;90.80;;;;;;5021000;28;20132;-82
2023/01/27 13:10:21;;;;;;;5.10;2.60;;;7.20;90.60;;;;;;5035433;28;20500;-82
2023/01/27 13:12:56;;;;;;;6.37;3.17;;;7.10;90.70;;;;;;5050149;28;20461;-83
2023/01/27 13:15:28;;;;;;;4.53;2.67;;;7.10;90.60;;;;;;5055142;28;20100;-82
2023/01/27 13:17:55;;;;;;;6.53;2.70;;;7.00;90.60;;;;;;5049198;28;20017;-82
2023/01/27 13:20:27;;;;;;;6.20;3.53;;;7.00;90.70;;;;;;5040047;28;20026;-81
2023/01/27 13:22:59;;;;;;;5.73;3.23;;;7.00;90.70;;;;;;5039353;28;20025;-82
2023/01/27 13:26:04;;;;;;;6.77;2.83;;;6.90;90.60;;;;;;5053471;28;20116;-82
2023/01/27 13:28:43;;;;;;;5.15;3.22;;;6.90;90.90;;;;;;5013156;28;20490;-84
2023/01/27 13:31:20;;;;;;;7.23;3.03;;;6.90;90.80;;;;;;5012226;28;20037;-78
2023/01/27 13:33:48;;;;;;;6.33;3.20;;;6.80;90.90;;;;;;5038336;28;20063;-78